sensor_id;sensor_type;location;lat;lon;timestamp;pressure;altitude;pressure_sealevel;temperature;humidity
45113;BME280;30873;53.908;27.576;2022-09-09T00:03:25;1024.7;;;10.2;57
45113;BME280;30873;53.908;27.576;2022-09-09T00:08:19;1024.8;;;10.2;57.2
45113;BME280;30873;53.908;27.576;2022-09-09T00:13:29;1024.8;;;10.1;57.4
45113;BME280;30873;53.908;27.576;2022-09-09T00:28:20;1024.8;;;9.9;57.9
45113;BME280;30873;53.908;27.576;2022-09-09T00:33:31;1024.7;;;10;57.8
45113;BME280;30873;53.908;27.576;2022-09-09T00:38:41;1024.7;;;9.9;58.1
45113;BME280;30873;53.908;27.576;2022-09-09T00:43:30;1024.7;;;9.8;58.3
45113;BME280;30873;53.908;27.576;2022-09-09T00:48:34;1024.7;;;9.7;58.5
45113;BME280;30873;53.908;27.576;2022-09-09T00:53:39;1024.7;;;9.7;58.5
45113;BME280;30873;53.908;27.576;2022-09-09T00:58:19;1024.7;;;9.6;58.6
45113;BME280;30873;53.908;27.576;2022-09-09T01:03:46;1024.8;;;9.6;58.7
45113;BME280;30873;53.908;27.576;2022-09-09T01:08:48;1024.8;;;9.6;58.8
45113;BME280;30873;53.908;27.576;2022-09-09T01:13:35;1024.8;;;9.6;58.9
45113;BME280;30873;53.908;27.576;2022-09-09T01:18:20;1024.8;;;9.6;58.9
45113;BME280;30873;53.908;27.576;2022-09-09T01:23:56;1024.8;;;9.5;59.1
45113;BME280;30873;53.908;27.576;2022-09-09T01:28:31;1024.8;;;9.5;59.2
45113;BME280;30873;53.908;27.576;2022-09-09T01:33:35;1024.8;;;9.4;59.3
45113;BME280;30873;53.908;27.576;2022-09-09T01:38:29;1024.9;;;9.3;59.7
45113;BME280;30873;53.908;27.576;2022-09-09T01:43:20;1024.8;;;9.3;59.9
45113;BME280;30873;53.908;27.576;2022-09-09T01:48:19;1024.7;;;9.3;59.9
45113;BME280;30873;53.908;27.576;2022-09-09T01:53:47;1024.7;;;9.1;60.4
45113;BME280;30873;53.908;27.576;2022-09-09T01:58:24;1024.6;;;9;60.6
45113;BME280;30873;53.908;27.576;2022-09-09T02:03:25;1024.5;;;9;60.7
45113;BME280;30873;53.908;27.576;2022-09-09T02:08:24;1024.5;;;8.9;61
45113;BME280;30873;53.908;27.576;2022-09-09T02:13:25;1024.4;;;8.8;61.3
45113;BME280;30873;53.908;27.576;2022-09-09T02:18:22;1024.5;;;8.8;61.5
45113;BME280;30873;53.908;27.576;2022-09-09T02:23:29;1024.6;;;8.8;61.8
45113;BME280;30873;53.908;27.576;2022-09-09T02:28:19;1024.6;;;8.7;62.2
45113;BME280;30873;53.908;27.576;2022-09-09T02:33:30;1024.6;;;8.7;62.3
45113;BME280;30873;53.908;27.576;2022-09-09T02:38:17;1024.5;;;8.7;62.2
45113;BME280;30873;53.908;27.576;2022-09-09T02:43:19;1024.5;;;8.7;62.4
45113;BME280;30873;53.908;27.576;2022-09-09T02:48:21;1024.5;;;8.5;62.9
45113;BME280;30873;53.908;27.576;2022-09-09T02:53:56;1024.6;;;8.4;63.4
45113;BME280;30873;53.908;27.576;2022-09-09T02:58:29;1024.7;;;8.5;63.4
45113;BME280;30873;53.908;27.576;2022-09-09T03:03:19;1024.6;;;8.5;63.2
45113;BME280;30873;53.908;27.576;2022-09-09T03:08:57;1024.6;;;8.6;63
45113;BME280;30873;53.908;27.576;2022-09-09T03:13:29;1024.6;;;8.6;62.9
45113;BME280;30873;53.908;27.576;2022-09-09T03:18:19;1024.6;;;8.6;62.9
45113;BME280;30873;53.908;27.576;2022-09-09T03:23:29;1024.6;;;8.7;62.8
45113;BME280;30873;53.908;27.576;2022-09-09T03:28:25;1024.6;;;8.6;62.7
45113;BME280;30873;53.908;27.576;2022-09-09T03:33:19;1024.7;;;8.6;62.8
45113;BME280;30873;53.908;27.576;2022-09-09T03:38:17;1024.8;;;8.6;62.7
45113;BME280;30873;53.908;27.576;2022-09-09T03:43:19;1024.8;;;8.6;62.7
45113;BME280;30873;53.908;27.576;2022-09-09T03:48:19;1024.8;;;8.6;62.6
45113;BME280;30873;53.908;27.576;2022-09-09T03:53:39;1024.8;;;8.6;62.7
45113;BME280;30873;53.908;27.576;2022-09-09T03:58:29;1024.9;;;8.7;62.5
45113;BME280;30873;53.908;27.576;2022-09-09T04:03:19;1024.9;;;8.6;62.4
45113;BME280;30873;53.908;27.576;2022-09-09T04:08:18;1024.9;;;8.6;62.5
45113;BME280;30873;53.908;27.576;2022-09-09T04:13:41;1024.9;;;8.6;62.5
45113;BME280;30873;53.908;27.576;2022-09-09T04:18:17;1024.9;;;8.7;62.4
45113;BME280;30873;53.908;27.576;2022-09-09T04:23:18;1025;;;8.7;62.5
45113;BME280;30873;53.908;27.576;2022-09-09T04:28:29;1025;;;8.8;62.3
45113;BME280;30873;53.908;27.576;2022-09-09T04:33:19;1025;;;9;62.1
45113;BME280;30873;53.908;27.576;2022-09-09T04:38:35;1024.9;;;9.1;61.8
45113;BME280;30873;53.908;27.576;2022-09-09T04:43:17;1024.9;;;9.1;61.7
45113;BME280;30873;53.908;27.576;2022-09-09T04:48:17;1025;;;9.3;61.5
45113;BME280;30873;53.908;27.576;2022-09-09T04:53:17;1024.9;;;9.5;61
45113;BME280;30873;53.908;27.576;2022-09-09T04:58:19;1025;;;9.8;60.3
45113;BME280;30873;53.908;27.576;2022-09-09T05:03:19;1025;;;9.9;60
45113;BME280;30873;53.908;27.576;2022-09-09T05:08:29;1025;;;10.1;59.5
45113;BME280;30873;53.908;27.576;2022-09-09T05:13:19;1025;;;10.3;58.9
45113;BME280;30873;53.908;27.576;2022-09-09T05:18:41;1025.1;;;10.4;58.6
45113;BME280;30873;53.908;27.576;2022-09-09T05:23:19;1025.1;;;10.4;58.6
45113;BME280;30873;53.908;27.576;2022-09-09T05:28:19;1025.1;;;10.6;58.2
45113;BME280;30873;53.908;27.576;2022-09-09T05:33:17;1025;;;11;57.3
45113;BME280;30873;53.908;27.576;2022-09-09T05:38:20;1024.9;;;11.4;56.4
45113;BME280;30873;53.908;27.576;2022-09-09T05:43:31;1024.9;;;11.7;55.6
45113;BME280;30873;53.908;27.576;2022-09-09T05:48:19;1024.9;;;12;54.9
45113;BME280;30873;53.908;27.576;2022-09-09T05:53:29;1025;;;12.4;53.9
45113;BME280;30873;53.908;27.576;2022-09-09T05:58:19;1025;;;12.9;53
45113;BME280;30873;53.908;27.576;2022-09-09T06:03:19;1025;;;12.9;52.7
45113;BME280;30873;53.908;27.576;2022-09-09T06:08:27;1025;;;12.8;53.2
45113;BME280;30873;53.908;27.576;2022-09-09T06:13:19;1025.1;;;13;52.7
45113;BME280;30873;53.908;27.576;2022-09-09T06:18:19;1025.1;;;13.3;51.8
45113;BME280;30873;53.908;27.576;2022-09-09T06:23:19;1025.2;;;13.3;51.7
45113;BME280;30873;53.908;27.576;2022-09-09T06:28:33;1025.2;;;13.4;51.5
45113;BME280;30873;53.908;27.576;2022-09-09T06:33:19;1025.2;;;13.6;50.8
45113;BME280;30873;53.908;27.576;2022-09-09T06:38:29;1025.3;;;14.1;49.6
45113;BME280;30873;53.908;27.576;2022-09-09T06:43:19;1025.3;;;14.1;49.2
45113;BME280;30873;53.908;27.576;2022-09-09T06:48:19;1025.3;;;14.3;48.9
45113;BME280;30873;53.908;27.576;2022-09-09T06:53:20;1025.3;;;14.6;48.1
45113;BME280;30873;53.908;27.576;2022-09-09T06:58:29;1025.3;;;14.9;47.5
45113;BME280;30873;53.908;27.576;2022-09-09T07:03:40;1025.3;;;15;47
45113;BME280;30873;53.908;27.576;2022-09-09T07:08:27;1025.2;;;15;47.3
45113;BME280;30873;53.908;27.576;2022-09-09T07:13:23;1025.2;;;14.9;47.1
45113;BME280;30873;53.908;27.576;2022-09-09T07:18:19;1025.3;;;14.9;47.2
45113;BME280;30873;53.908;27.576;2022-09-09T07:23:19;1025.2;;;15.2;46.6
45113;BME280;30873;53.908;27.576;2022-09-09T07:28:31;1025.2;;;15.4;46.1
45113;BME280;30873;53.908;27.576;2022-09-09T07:33:30;1025.4;;;15.2;46.4
45113;BME280;30873;53.908;27.576;2022-09-09T07:38:29;1025.2;;;15.7;45.5
45113;BME280;30873;53.908;27.576;2022-09-09T07:43:19;1025.2;;;16.5;43.9
45113;BME280;30873;53.908;27.576;2022-09-09T07:48:29;1025.2;;;16.5;43.3
45113;BME280;30873;53.908;27.576;2022-09-09T07:53:19;1025.2;;;16.6;42.9
45113;BME280;30873;53.908;27.576;2022-09-09T07:58:29;1025.2;;;16.9;42.4
45113;BME280;30873;53.908;27.576;2022-09-09T08:03:25;1025.1;;;17.2;41.8
45113;BME280;30873;53.908;27.576;2022-09-09T08:08:19;1025.1;;;17.4;41.1
45113;BME280;30873;53.908;27.576;2022-09-09T08:13:19;1025.1;;;17.6;40.7
45113;BME280;30873;53.908;27.576;2022-09-09T08:18:19;1025.1;;;17.4;40.7
45113;BME280;30873;53.908;27.576;2022-09-09T08:23:42;1025.1;;;17.3;41
45113;BME280;30873;53.908;27.576;2022-09-09T08:28:40;1025.1;;;17.2;40.4
45113;BME280;30873;53.908;27.576;2022-09-09T08:33:29;1025;;;17;40.6
45113;BME280;30873;53.908;27.576;2022-09-09T08:38:27;1025;;;17.2;40.3
45113;BME280;30873;53.908;27.576;2022-09-09T08:43:20;1025.1;;;16.8;40.9
45113;BME280;30873;53.908;27.576;2022-09-09T08:48:37;1025;;;17.5;39.8
45113;BME280;30873;53.908;27.576;2022-09-09T08:53:20;1024.9;;;18.4;38.1
45113;BME280;30873;53.908;27.576;2022-09-09T08:58:21;1024.9;;;18.7;37
45113;BME280;30873;53.908;27.576;2022-09-09T09:08:36;1025;;;18.4;36.9
45113;BME280;30873;53.908;27.576;2022-09-09T09:13:22;1024.9;;;19.2;35.7
45113;BME280;30873;53.908;27.576;2022-09-09T09:18:19;1024.8;;;20.2;34.5
45113;BME280;30873;53.908;27.576;2022-09-09T09:23:22;1024.8;;;21;32.6
45113;BME280;30873;53.908;27.576;2022-09-09T09:28:22;1024.7;;;22.1;31.2
45113;BME280;30873;53.908;27.576;2022-09-09T09:33:21;1024.5;;;23.4;29.2
45113;BME280;30873;53.908;27.576;2022-09-09T09:38:29;1024.6;;;23.8;28.1
45113;BME280;30873;53.908;27.576;2022-09-09T09:43:39;1024.5;;;23.8;27.8
45113;BME280;30873;53.908;27.576;2022-09-09T09:48:31;1024.4;;;24.3;27
45113;BME280;30873;53.908;27.576;2022-09-09T09:53:22;1024.4;;;25.5;25.9
45113;BME280;30873;53.908;27.576;2022-09-09T09:59:05;1024.4;;;26.1;25.4
45113;BME280;30873;53.908;27.576;2022-09-09T10:03:34;1024.5;;;24.2;26.7
45113;BME280;30873;53.908;27.576;2022-09-09T10:08:27;1024.5;;;21.7;29.1
45113;BME280;30873;53.908;27.576;2022-09-09T10:13:54;1024.5;;;20.7;30.1
45113;BME280;30873;53.908;27.576;2022-09-09T10:23:26;1024.6;;;20.5;31.4
45113;BME280;30873;53.908;27.576;2022-09-09T10:28:25;1024.5;;;20.9;30.4
45113;BME280;30873;53.908;27.576;2022-09-09T10:33:50;1024.5;;;21.2;29.7
45113;BME280;30873;53.908;27.576;2022-09-09T10:44:25;1024.5;;;23.1;27.8
45113;BME280;30873;53.908;27.576;2022-09-09T10:49:22;1024.5;;;22.9;27.6
45113;BME280;30873;53.908;27.576;2022-09-09T10:53:35;1024.5;;;23.7;26.8
45113;BME280;30873;53.908;27.576;2022-09-09T10:58:22;1024.5;;;23.9;26.4
45113;BME280;30873;53.908;27.576;2022-09-09T11:03:21;1024.5;;;24.6;25.8
45113;BME280;30873;53.908;27.576;2022-09-09T11:08:21;1024.5;;;25.5;24.6
45113;BME280;30873;53.908;27.576;2022-09-09T11:18:21;1024.5;;;27.2;23
45113;BME280;30873;53.908;27.576;2022-09-09T11:24:04;1024.4;;;27.5;22.3
45113;BME280;30873;53.908;27.576;2022-09-09T11:33:25;1024.4;;;28.5;21.1
45113;BME280;30873;53.908;27.576;2022-09-09T11:38:23;1024.3;;;28.5;21.2
45113;BME280;30873;53.908;27.576;2022-09-09T11:43:34;1024.3;;;28.4;21
45113;BME280;30873;53.908;27.576;2022-09-09T11:48:25;1024.2;;;28.5;21
45113;BME280;30873;53.908;27.576;2022-09-09T11:54:46;1024.1;;;29.7;20
45113;BME280;30873;53.908;27.576;2022-09-09T11:58:27;1024;;;29.7;19.7
45113;BME280;30873;53.908;27.576;2022-09-09T12:03:51;1024;;;30.8;18.9
45113;BME280;30873;53.908;27.576;2022-09-09T12:08:29;1024;;;32.4;17.7
45113;BME280;30873;53.908;27.576;2022-09-09T12:13:29;1024;;;33.9;16.4
45113;BME280;30873;53.908;27.576;2022-09-09T12:18:24;1024;;;34.4;15.7
45113;BME280;30873;53.908;27.576;2022-09-09T12:23:29;1024;;;34.4;15.6
45113;BME280;30873;53.908;27.576;2022-09-09T12:33:34;1024;;;34.8;15.2
45113;BME280;30873;53.908;27.576;2022-09-09T12:38:22;1024;;;34.9;14.9
45113;BME280;30873;53.908;27.576;2022-09-09T12:43:28;1024;;;34.2;15.1
45113;BME280;30873;53.908;27.576;2022-09-09T12:48:20;1024;;;34.7;14.6
45113;BME280;30873;53.908;27.576;2022-09-09T12:53:31;1024;;;34.9;14.4
45113;BME280;30873;53.908;27.576;2022-09-09T12:58:19;1024;;;33.5;15.2
45113;BME280;30873;53.908;27.576;2022-09-09T13:03:30;1024;;;33.4;15.4
45113;BME280;30873;53.908;27.576;2022-09-09T13:09:03;1023.9;;;33.8;15
45113;BME280;30873;53.908;27.576;2022-09-09T13:13:35;1023.9;;;34.1;14.9
45113;BME280;30873;53.908;27.576;2022-09-09T13:18:22;1023.8;;;36.2;13.9
45113;BME280;30873;53.908;27.576;2022-09-09T13:23:20;1023.7;;;37;13.4
45113;BME280;30873;53.908;27.576;2022-09-09T13:28:20;1023.6;;;34.7;14.6
45113;BME280;30873;53.908;27.576;2022-09-09T13:33:41;1023.7;;;34.4;14.6
45113;BME280;30873;53.908;27.576;2022-09-09T13:38:28;1023.6;;;33.7;15
45113;BME280;30873;53.908;27.576;2022-09-09T13:43:45;1023.6;;;33.6;15.2
45113;BME280;30873;53.908;27.576;2022-09-09T13:48:20;1023.6;;;33.6;15.2
45113;BME280;30873;53.908;27.576;2022-09-09T13:53:30;1023.6;;;32.8;15.8
45113;BME280;30873;53.908;27.576;2022-09-09T13:58:33;1023.6;;;31.3;16.6
45113;BME280;30873;53.908;27.576;2022-09-09T14:03:20;1023.6;;;31;17
45113;BME280;30873;53.908;27.576;2022-09-09T14:08:29;1023.6;;;28.7;18.6
45113;BME280;30873;53.908;27.576;2022-09-09T14:13:44;1023.6;;;27.4;19.9
45113;BME280;30873;53.908;27.576;2022-09-09T14:18:20;1023.6;;;27.5;20.2
45113;BME280;30873;53.908;27.576;2022-09-09T14:23:28;1023.5;;;27.5;20.3
45113;BME280;30873;53.908;27.576;2022-09-09T14:28:27;1023.5;;;26.1;21.6
45113;BME280;30873;53.908;27.576;2022-09-09T14:33:32;1023.4;;;24.9;22.7
45113;BME280;30873;53.908;27.576;2022-09-09T14:38:42;1023.5;;;23.3;24.5
45113;BME280;30873;53.908;27.576;2022-09-09T14:43:20;1023.5;;;22.9;25.1
45113;BME280;30873;53.908;27.576;2022-09-09T14:48:20;1023.6;;;22.1;26.2
45113;BME280;30873;53.908;27.576;2022-09-09T14:53:20;1023.5;;;21.9;26.7
45113;BME280;30873;53.908;27.576;2022-09-09T14:58:32;1023.5;;;22.1;26.5
45113;BME280;30873;53.908;27.576;2022-09-09T15:03:28;1023.5;;;22.6;25.9
45113;BME280;30873;53.908;27.576;2022-09-09T15:08:32;1023.5;;;23.5;25
45113;BME280;30873;53.908;27.576;2022-09-09T15:13:20;1023.5;;;24.6;23.8
45113;BME280;30873;53.908;27.576;2022-09-09T15:18:20;1023.5;;;24.3;24
45113;BME280;30873;53.908;27.576;2022-09-09T15:23:20;1023.4;;;25.7;22.8
45113;BME280;30873;53.908;27.576;2022-09-09T15:28:20;1023.4;;;28.2;20.5
45113;BME280;30873;53.908;27.576;2022-09-09T15:33:30;1023.4;;;30;19.1
45113;BME280;30873;53.908;27.576;2022-09-09T15:38:32;1023.4;;;31.1;18.1
45113;BME280;30873;53.908;27.576;2022-09-09T15:43:20;1023.5;;;30.6;18.4
45113;BME280;30873;53.908;27.576;2022-09-09T15:48:34;1023.5;;;28.7;19.6
45113;BME280;30873;53.908;27.576;2022-09-09T15:53:44;1023.5;;;25.1;22.8
45113;BME280;30873;53.908;27.576;2022-09-09T15:58:34;1023.4;;;22.8;25.5
45113;BME280;30873;53.908;27.576;2022-09-09T16:03:20;1023.5;;;21.2;27.4
45113;BME280;30873;53.908;27.576;2022-09-09T16:08:36;1023.5;;;20.1;29
45113;BME280;30873;53.908;27.576;2022-09-09T16:13:52;1023.5;;;19.2;30.3
45113;BME280;30873;53.908;27.576;2022-09-09T16:18:34;1023.5;;;18.5;31.6
45113;BME280;30873;53.908;27.576;2022-09-09T16:23:20;1023.6;;;18.2;32.3
45113;BME280;30873;53.908;27.576;2022-09-09T16:28:54;1023.6;;;17.7;33.2
45113;BME280;30873;53.908;27.576;2022-09-09T16:33:32;1023.6;;;17.5;33.8
45113;BME280;30873;53.908;27.576;2022-09-09T16:38:20;1023.6;;;17.3;34.2
45113;BME280;30873;53.908;27.576;2022-09-09T16:43:30;1023.7;;;17.1;34.7
45113;BME280;30873;53.908;27.576;2022-09-09T16:48:20;1023.6;;;17;35.2
45113;BME280;30873;53.908;27.576;2022-09-09T16:53:46;1023.7;;;16.8;35.6
45113;BME280;30873;53.908;27.576;2022-09-09T16:58:20;1023.7;;;16.7;36
45113;BME280;30873;53.908;27.576;2022-09-09T17:03:44;1023.7;;;16.5;36.6
45113;BME280;30873;53.908;27.576;2022-09-09T17:08:20;1023.8;;;16.3;37
45113;BME280;30873;53.908;27.576;2022-09-09T17:13:20;1023.8;;;16.2;37.4
45113;BME280;30873;53.908;27.576;2022-09-09T17:18:20;1023.9;;;16;37.8
45113;BME280;30873;53.908;27.576;2022-09-09T17:23:42;1024;;;15.9;38.2
45113;BME280;30873;53.908;27.576;2022-09-09T17:28:40;1024;;;15.8;38.4
45113;BME280;30873;53.908;27.576;2022-09-09T17:33:34;1024;;;15.7;38.8
45113;BME280;30873;53.908;27.576;2022-09-09T17:38:32;1024;;;15.5;39.2
45113;BME280;30873;53.908;27.576;2022-09-09T17:43:42;1024.1;;;15.4;39.4
45113;BME280;30873;53.908;27.576;2022-09-09T17:48:29;1024.1;;;15.4;39.6
45113;BME280;30873;53.908;27.576;2022-09-09T17:53:43;1024.1;;;15.3;39.8
45113;BME280;30873;53.908;27.576;2022-09-09T17:58:20;1024.1;;;15.2;40.1
45113;BME280;30873;53.908;27.576;2022-09-09T18:03:20;1024.1;;;15.1;40.5
45113;BME280;30873;53.908;27.576;2022-09-09T18:08:20;1024.2;;;15;40.8
45113;BME280;30873;53.908;27.576;2022-09-09T18:13:28;1024.2;;;14.9;41
45113;BME280;30873;53.908;27.576;2022-09-09T18:18:20;1024.2;;;14.8;41.3
45113;BME280;30873;53.908;27.576;2022-09-09T18:23:35;1024.2;;;14.7;41.5
45113;BME280;30873;53.908;27.576;2022-09-09T18:28:28;1024.3;;;14.6;41.5
45113;BME280;30873;53.908;27.576;2022-09-09T18:33:20;1024.3;;;14.6;41.6
45113;BME280;30873;53.908;27.576;2022-09-09T18:38:18;1024.3;;;14.5;41.9
45113;BME280;30873;53.908;27.576;2022-09-09T18:43:20;1024.3;;;14.4;42.2
45113;BME280;30873;53.908;27.576;2022-09-09T18:48:31;1024.3;;;14.4;42.3
45113;BME280;30873;53.908;27.576;2022-09-09T18:53:20;1024.3;;;14.3;42.7
45113;BME280;30873;53.908;27.576;2022-09-09T18:58:20;1024.3;;;14.2;42.9
45113;BME280;30873;53.908;27.576;2022-09-09T19:03:20;1024.2;;;14.1;43
45113;BME280;30873;53.908;27.576;2022-09-09T19:08:18;1024.2;;;14.1;43.1
45113;BME280;30873;53.908;27.576;2022-09-09T19:13:32;1024.2;;;14;43.3
45113;BME280;30873;53.908;27.576;2022-09-09T19:18:42;1024.2;;;14;43.5
45113;BME280;30873;53.908;27.576;2022-09-09T19:23:20;1024.2;;;13.9;43.6
45113;BME280;30873;53.908;27.576;2022-09-09T19:28:28;1024.2;;;13.9;43.7
45113;BME280;30873;53.908;27.576;2022-09-09T19:33:20;1024.3;;;13.8;44
45113;BME280;30873;53.908;27.576;2022-09-09T19:38:18;1024.2;;;13.7;44.3
45113;BME280;30873;53.908;27.576;2022-09-09T19:43:30;1024.2;;;13.7;44.5
45113;BME280;30873;53.908;27.576;2022-09-09T19:48:30;1024.2;;;13.6;44.8
45113;BME280;30873;53.908;27.576;2022-09-09T19:53:30;1024.2;;;13.5;45.3
45113;BME280;30873;53.908;27.576;2022-09-09T19:58:20;1024.2;;;13.4;45.6
45113;BME280;30873;53.908;27.576;2022-09-09T20:03:20;1024.2;;;13.4;45.6
45113;BME280;30873;53.908;27.576;2022-09-09T20:08:32;1024.1;;;13.3;45.7
45113;BME280;30873;53.908;27.576;2022-09-09T20:13:27;1024.1;;;13.3;45.7
45113;BME280;30873;53.908;27.576;2022-09-09T20:18:29;1024;;;13.3;45.7
45113;BME280;30873;53.908;27.576;2022-09-09T20:23:28;1024;;;13.2;45.8
45113;BME280;30873;53.908;27.576;2022-09-09T20:28:28;1024;;;13.2;45.9
45113;BME280;30873;53.908;27.576;2022-09-09T20:33:58;1024;;;13.1;46.1
45113;BME280;30873;53.908;27.576;2022-09-09T20:38:32;1024;;;13.1;46.1
45113;BME280;30873;53.908;27.576;2022-09-09T20:43:20;1024;;;13.1;46.2
45113;BME280;30873;53.908;27.576;2022-09-09T20:48:20;1024;;;13;46.5
45113;BME280;30873;53.908;27.576;2022-09-09T20:53:20;1024.1;;;12.9;46.7
45113;BME280;30873;53.908;27.576;2022-09-09T20:58:20;1024.2;;;12.9;47
45113;BME280;30873;53.908;27.576;2022-09-09T21:03:20;1024.2;;;12.7;47.4
45113;BME280;30873;53.908;27.576;2022-09-09T21:08:28;1024.2;;;12.7;47.6
45113;BME280;30873;53.908;27.576;2022-09-09T21:13:28;1024.1;;;12.6;47.8
45113;BME280;30873;53.908;27.576;2022-09-09T21:18:30;1024.2;;;12.5;48.2
45113;BME280;30873;53.908;27.576;2022-09-09T21:23:20;1024.2;;;12.4;48.6
45113;BME280;30873;53.908;27.576;2022-09-09T21:28:20;1024.2;;;12.3;48.8
45113;BME280;30873;53.908;27.576;2022-09-09T21:33:46;1024.2;;;12.3;48.8
45113;BME280;30873;53.908;27.576;2022-09-09T21:38:32;1024.3;;;12.2;49
45113;BME280;30873;53.908;27.576;2022-09-09T21:43:34;1024.3;;;12.2;49.2
45113;BME280;30873;53.908;27.576;2022-09-09T21:48:20;1024.2;;;12.1;49.3
45113;BME280;30873;53.908;27.576;2022-09-09T21:53:20;1024.2;;;12;49.4
45113;BME280;30873;53.908;27.576;2022-09-09T21:58:20;1024.3;;;12;49.7
45113;BME280;30873;53.908;27.576;2022-09-09T22:03:20;1024.2;;;12;49.6
45113;BME280;30873;53.908;27.576;2022-09-09T22:08:20;1024.2;;;11.9;49.6
45113;BME280;30873;53.908;27.576;2022-09-09T22:13:30;1024.1;;;11.9;49.8
45113;BME280;30873;53.908;27.576;2022-09-09T22:18:38;1024.2;;;11.7;50.1
45113;BME280;30873;53.908;27.576;2022-09-09T22:23:32;1024.2;;;11.7;50.4
45113;BME280;30873;53.908;27.576;2022-09-09T22:28:20;1024.2;;;11.6;50.4
45113;BME280;30873;53.908;27.576;2022-09-09T22:34:10;1024.3;;;11.6;50.5
45113;BME280;30873;53.908;27.576;2022-09-09T22:38:32;1024.2;;;11.5;50.8
45113;BME280;30873;53.908;27.576;2022-09-09T22:43:20;1024.2;;;11.5;50.8
45113;BME280;30873;53.908;27.576;2022-09-09T22:48:35;1024.2;;;11.5;50.9
45113;BME280;30873;53.908;27.576;2022-09-09T22:53:50;1024.3;;;11.5;51.1
45113;BME280;30873;53.908;27.576;2022-09-09T22:58:20;1024.3;;;11.4;51.2
45113;BME280;30873;53.908;27.576;2022-09-09T23:03:56;1024.3;;;11.4;51.3
45113;BME280;30873;53.908;27.576;2022-09-09T23:08:20;1024.3;;;11.3;51.4
45113;BME280;30873;53.908;27.576;2022-09-09T23:13:41;1024.2;;;11.3;51.5
45113;BME280;30873;53.908;27.576;2022-09-09T23:18:42;1024.1;;;11.3;51.5
45113;BME280;30873;53.908;27.576;2022-09-09T23:23:20;1024;;;11.3;51.5
45113;BME280;30873;53.908;27.576;2022-09-09T23:28:20;1023.9;;;11.3;51.5
45113;BME280;30873;53.908;27.576;2022-09-09T23:33:44;1023.9;;;11.2;51.7
45113;BME280;30873;53.908;27.576;2022-09-09T23:38:20;1023.9;;;11.1;51.9
45113;BME280;30873;53.908;27.576;2022-09-09T23:43:28;1023.9;;;11.1;52.1
45113;BME280;30873;53.908;27.576;2022-09-09T23:48:20;1024;;;11;52.2
45113;BME280;30873;53.908;27.576;2022-09-09T23:53:20;1023.9;;;10.9;52.2
45113;BME280;30873;53.908;27.576;2022-09-09T23:58:29;1023.8;;;10.9;52.4
